San Jose, California
Current Conditions -  °F | °C
As of 11:53 PM on Thursday 18 Dec 2014 (Local Time) from KSJC Reporting Station
Broken Clouds Broken Clouds  
Wind Chill: 53°   Ceiling: 20000
Heat Index: 53°   Visibility: 10mi
Dew Point: 49°   Wind: 6mph
Humidity: 86%   Direction: 130°SE
Pressure: 30.19"   Gusts: NA
Location:  37.35°N, 121.9°W
Report Text: KSJC 190753Z 13005KT 10SM SCT040 BKN200 12/09 A3019 RMK AO2 SLP222 T01170094 401670100
Loading
Personal Weather Stations






























Interactive Weather Map New forecast layout! Learn more

10-Day Weather Forecast

Advertisements
Track Severe Weather on mobile